Startpagina
METAR-TAF:

METAR-TAF

Vliegvelden :

Auckland, Nieuw-Zeeland

Luchthaven van Auckland

breedte: 37-01S, lengte: 174-48E, hoogte: 7 m

Actueel weer

Dit bericht is 42 minuten geleden gemaakt, om 06:30 UTC
Wind 5 kt uit het noordnoordoosten
Temperatuur 16°C
Vochtigheid 88%
Druk 1019 hPa
Zicht 10 km of meer

METAR: NZAA 270630Z AUTO 03005KT 9999 NCD 16/14 Q1019 NOSIG

Tijdstip: 19:12 (07:12 UTC)

Verwachting

Dit bericht is 2 uur en het 11 minuten geleden gemaakt, om 05:01 UTC
Verwachting geldig van 27 om 06 UTC tot 28 om 06 UTC
Wind 2 kt uit variabele richting
Zicht 10 km of meer
Verspreide wolken op 2000 ft
Wijzigt naar
van 27 om 21 UTC tot 27 om 23 UTC
Wind 12 kt uit het noordnoordoosten

TAF: NZAA 270501Z 2706/2806 VRB02KT 9999 SCT020 BECMG 2721/2723 02012KT

Waarnemingen en weersverwachtingen van meer dan 4000 vliegvelden (METAR en TAF).

De beschikbare stations zijn de gele en rode punten op de kaart.

Ga met uw muis naar het station om de naam te zien.

Klik dan om waarnemingen en weersverwachtingen te zien.

kaart wijzigen: klik op de groene knoppen met een zwart kruis om in te zoomen, op de groene knop met een streepje om uit te zoomen of op de groene pijlen voor aangrenzende kaarten.


METAR-TAF: